Woden, Iowa
Current Conditions -  °F | °C
As of 3:35 PM on Saturday 20 Dec 2014 (Local Time) from KFXY Reporting Station
Overcast Overcast  
Wind Chill: 27°   Ceiling: 1500
Heat Index: 32°   Visibility: 7mi
Dew Point: 28°   Wind: 5mph
Humidity: 87%   Direction: 130°SE
Pressure: 30.1"   Gusts: NA
Location:  43.23°N, 93.91°W
Report Text: KFXY 202135Z AUTO 13004KT 7SM OVC015 00/M02 A3010 RMK AO2
Loading
Personal Weather Stations






























Interactive Weather Map New forecast layout! Learn more

10-Day Weather Forecast

Advertisements
Track Severe Weather on mobile